X  Chiudi Dati meteorologici dell'aviazione (METAR)     LICJ Falcone–Borsellino Airport
Temperatura
25°C Temperatura
22°C Punto di rugiada
83% Umidità



Vento
11 KM/H
7 MPH
3 M/S
6 KTS



240°
OSO
Condizioni attuali

Parzialmente nuvoloso Parzialmente nuvoloso
Pressione 1014.92 (hPa) - 29.97 (inHg)
Visibilità 6.2 (miglio) - 10 (km)
Aeroporto
Codice-Aeroporto LICJ

Posizione: Falcone–Borsellino Airport
Distanza: 78 (km)

Metar:
LICJ 192350Z 24006KT 9999 FEW020 25/22 Q1015

Ore: 20-09-2021 01:50 CEST